Time;durP1;ratioP1;P1;durP2;ratioP2;P2;SDS_P1;SDS_P2;PMS_P1;PMS_P2;Temp;Humidity;BMP_temperature;BMP_pressure;BME280_temperature;BME280_humidity;BME280_pressure;Samples;Min_cycle;Max_cycle;Signal;HPM_P1;HPM_P2
2022/12/23 00:01:23;;;;;;;4.90;4.70;;;9.30;99.90;;;;;;5024600;28;20545;-79
2022/12/23 00:03:52;;;;;;;4.93;4.57;;;9.30;99.90;;;;;;5022973;28;20464;-79
2022/12/23 00:06:20;;;;;;;5.00;4.70;;;9.30;99.90;;;;;;5020049;28;21178;-80
2022/12/23 00:08:49;;;;;;;4.60;4.50;;;9.30;99.90;;;;;;5017987;28;20474;-80
2022/12/23 00:11:19;;;;;;;4.87;4.63;;;9.30;99.90;;;;;;5017442;28;21035;-80
2022/12/23 00:16:36;;;;;;;5.30;5.00;;;9.30;99.90;;;;;;5020618;28;20869;-81
2022/12/23 00:19:04;;;;;;;4.93;4.83;;;9.30;99.90;;;;;;5019818;28;20483;-80
2022/12/23 00:21:34;;;;;;;5.40;5.10;;;9.30;99.90;;;;;;5016737;28;20571;-79
2022/12/23 00:24:03;;;;;;;5.57;5.37;;;9.40;99.90;;;;;;5014127;28;20540;-80
2022/12/23 00:26:31;;;;;;;6.10;5.70;;;9.40;99.90;;;;;;5021650;28;20582;-80
2022/12/23 00:28:59;;;;;;;6.30;6.00;;;9.40;99.90;;;;;;5019517;28;20478;-80
2022/12/23 00:31:28;;;;;;;6.60;6.30;;;9.40;99.90;;;;;;5017134;28;20816;-80
2022/12/23 00:33:58;;;;;;;5.80;5.60;;;9.40;99.90;;;;;;5016990;28;20507;-81
2022/12/23 00:36:28;;;;;;;6.20;5.90;;;9.30;99.90;;;;;;5021179;28;20442;-80
2022/12/23 00:44:29;;;;;;;6.33;6.13;;;9.40;99.90;;;;;;5020674;28;20966;-80
2022/12/23 00:46:57;;;;;;;6.20;6.00;;;9.50;99.90;;;;;;5016209;28;20463;-80
2022/12/23 00:49:41;;;;;;;7.10;6.60;;;9.50;99.90;;;;;;5019071;28;20503;-81
2022/12/23 00:52:12;;;;;;;6.83;6.63;;;9.50;99.90;;;;;;5019095;28;20446;-82
2022/12/23 00:54:40;;;;;;;7.00;6.80;;;9.50;99.90;;;;;;5022205;28;20451;-79
2022/12/23 00:57:09;;;;;;;7.00;6.90;;;9.50;99.90;;;;;;5019862;28;20463;-79
2022/12/23 00:59:37;;;;;;;7.27;7.07;;;9.50;99.90;;;;;;5021905;28;20495;-80
2022/12/23 01:07:51;;;;;;;7.13;6.93;;;9.60;99.90;;;;;;5016086;28;20565;-78
2022/12/23 01:10:20;;;;;;;7.60;7.40;;;9.60;99.90;;;;;;5020571;28;21105;-80
2022/12/23 01:12:48;;;;;;;7.70;7.40;;;9.60;99.90;;;;;;5020085;28;20454;-79
2022/12/23 01:15:16;;;;;;;8.17;7.97;;;9.70;99.90;;;;;;5020215;28;20554;-80
2022/12/23 01:17:45;;;;;;;7.80;7.70;;;9.70;99.90;;;;;;5015605;28;20482;-80
2022/12/23 01:20:14;;;;;;;7.40;7.30;;;9.70;99.90;;;;;;5019720;28;20568;-80
2022/12/23 01:22:43;;;;;;;8.00;7.80;;;9.70;99.90;;;;;;5013206;28;20482;-81
2022/12/23 01:25:11;;;;;;;8.30;7.80;;;9.80;99.90;;;;;;5019412;28;20497;-80
2022/12/23 01:27:40;;;;;;;7.87;7.77;;;9.80;99.90;;;;;;5011306;28;20477;-79
2022/12/23 01:30:09;;;;;;;8.00;7.90;;;9.80;99.90;;;;;;5018171;28;20510;-79
2022/12/23 01:32:37;;;;;;;8.40;8.20;;;9.80;99.90;;;;;;5016496;28;20468;-81
2022/12/23 01:35:06;;;;;;;8.53;8.33;;;9.80;99.90;;;;;;5018585;28;20585;-80
2022/12/23 01:37:36;;;;;;;8.37;8.27;;;9.80;99.90;;;;;;5020496;28;20468;-79
2022/12/23 01:40:05;;;;;;;9.00;8.90;;;9.80;99.90;;;;;;5017782;28;20456;-79
2022/12/23 01:42:45;;;;;;;9.60;9.40;;;9.90;99.90;;;;;;5020965;28;20542;-80
2022/12/23 01:45:17;;;;;;;10.00;9.70;;;9.90;99.90;;;;;;5020222;28;20463;-80
2022/12/23 01:47:50;;;;;;;9.73;9.47;;;9.90;99.90;;;;;;5020095;28;20453;-80
2022/12/23 01:50:23;;;;;;;10.13;9.73;;;10.00;99.90;;;;;;5020403;28;20454;-80
2022/12/23 01:52:59;;;;;;;10.70;10.20;;;10.00;99.90;;;;;;5022764;28;20459;-80
2022/12/23 01:55:38;;;;;;;10.63;10.43;;;9.90;99.90;;;;;;5019467;28;20467;-81
2022/12/23 01:58:10;;;;;;;10.50;10.30;;;9.90;99.90;;;;;;5019890;28;20487;-81
2022/12/23 02:03:44;;;;;;;10.80;10.60;;;10.10;99.90;;;;;;5017755;28;20447;-79
2022/12/23 02:09:17;;;;;;;11.80;11.60;;;10.10;99.90;;;;;;5022610;28;20508;-80
2022/12/23 02:12:22;;;;;;;11.40;11.20;;;10.20;99.90;;;;;;5025286;28;20535;-80
2022/12/23 02:18:11;;;;;;;12.00;11.80;;;10.20;99.90;;;;;;5012398;28;20480;-81
2022/12/23 02:21:05;;;;;;;12.20;12.00;;;10.20;99.90;;;;;;5012869;28;20464;-80
2022/12/23 02:24:00;;;;;;;12.57;12.27;;;10.30;99.90;;;;;;5015871;28;20916;-80
2022/12/23 02:26:58;;;;;;;12.50;12.30;;;10.30;99.90;;;;;;5024390;28;20473;-79
2022/12/23 02:29:55;;;;;;;12.83;12.60;;;10.30;99.90;;;;;;5012974;28;20483;-80
2022/12/23 02:32:31;;;;;;;12.53;12.33;;;10.40;99.90;;;;;;5020244;28;20521;-80
2022/12/23 02:35:06;;;;;;;13.67;13.17;;;10.40;99.90;;;;;;5021950;28;20460;-79
2022/12/23 02:37:40;;;;;;;13.23;13.03;;;10.40;99.90;;;;;;5021878;28;20890;-80
2022/12/23 02:40:14;;;;;;;13.50;13.20;;;10.40;99.90;;;;;;5019965;28;20464;-80
2022/12/23 02:42:47;;;;;;;13.10;12.80;;;10.50;99.90;;;;;;5016189;28;20537;-82
2022/12/23 02:45:21;;;;;;;13.57;13.23;;;10.40;99.90;;;;;;5019045;28;20959;-79
2022/12/23 02:47:56;;;;;;;13.10;12.90;;;10.40;99.90;;;;;;5016726;28;20491;-81
2022/12/23 02:50:29;;;;;;;13.70;13.40;;;10.40;99.90;;;;;;5019708;28;20454;-79
2022/12/23 02:53:01;;;;;;;13.60;13.40;;;10.40;99.90;;;;;;5019697;28;20453;-82
2022/12/23 02:55:35;;;;;;;13.70;13.40;;;10.50;99.90;;;;;;5018191;28;20461;-80
2022/12/23 02:58:06;;;;;;;13.70;13.40;;;10.50;99.90;;;;;;5009560;28;20575;-82
2022/12/23 03:00:36;;;;;;;13.90;13.70;;;10.50;99.90;;;;;;5018866;28;20552;-79
2022/12/23 03:03:05;;;;;;;13.80;13.60;;;10.60;99.90;;;;;;5019166;28;20539;-79
2022/12/23 03:05:37;;;;;;;13.67;13.47;;;10.50;99.90;;;;;;5021302;28;20475;-79
2022/12/23 03:08:10;;;;;;;13.90;13.60;;;10.60;99.90;;;;;;5018013;28;20517;-80
2022/12/23 03:10:51;;;;;;;13.97;13.67;;;10.50;99.90;;;;;;5017050;28;21060;-78
2022/12/23 03:13:28;;;;;;;13.93;13.70;;;10.60;99.90;;;;;;5021007;28;20555;-81
2022/12/23 03:16:08;;;;;;;14.30;14.00;;;10.60;99.90;;;;;;5022556;28;20966;-80
2022/12/23 03:18:46;;;;;;;14.40;14.10;;;10.60;99.90;;;;;;5021174;28;20519;-79
2022/12/23 03:21:22;;;;;;;14.20;13.90;;;10.60;99.90;;;;;;5024046;28;20459;-79
2022/12/23 03:23:54;;;;;;;14.50;14.20;;;10.60;99.90;;;;;;5022701;28;20567;-80
2022/12/23 03:26:29;;;;;;;14.90;14.60;;;10.70;99.90;;;;;;5024462;28;20444;-80
2022/12/23 03:29:03;;;;;;;14.70;14.40;;;10.70;99.90;;;;;;5024946;28;20468;-79
2022/12/23 03:31:34;;;;;;;14.70;14.40;;;10.70;99.90;;;;;;5025062;28;20440;-80
2022/12/23 03:34:10;;;;;;;15.00;14.70;;;10.70;99.90;;;;;;5016227;28;21022;-82
2022/12/23 03:36:41;;;;;;;14.97;14.67;;;10.80;99.90;;;;;;5020354;28;20444;-80
2022/12/23 03:39:14;;;;;;;15.50;15.10;;;10.80;99.90;;;;;;5022274;28;20535;-80
2022/12/23 03:41:48;;;;;;;15.10;14.80;;;10.80;99.90;;;;;;5022311;28;20475;-79
2022/12/23 03:44:21;;;;;;;15.20;14.90;;;10.80;99.90;;;;;;5022329;28;20456;-82
2022/12/23 03:46:55;;;;;;;15.10;14.80;;;10.90;99.90;;;;;;5020459;28;20464;-80
2022/12/23 03:49:30;;;;;;;15.20;14.80;;;10.80;99.90;;;;;;5023508;28;20858;-79
2022/12/23 03:52:03;;;;;;;15.27;14.87;;;10.90;99.90;;;;;;5022627;28;20515;-79
2022/12/23 03:54:36;;;;;;;14.90;14.60;;;10.90;99.90;;;;;;5022159;28;20964;-79
2022/12/23 03:57:07;;;;;;;15.33;14.50;;;10.90;99.90;;;;;;5021604;28;20555;-79
2022/12/23 03:59:42;;;;;;;15.10;14.70;;;10.90;99.90;;;;;;5025314;28;20451;-80
2022/12/23 04:02:16;;;;;;;14.80;14.40;;;10.90;99.90;;;;;;5025091;28;20459;-79
2022/12/23 04:04:59;;;;;;;14.90;14.60;;;10.90;99.90;;;;;;5026163;28;20965;-80
2022/12/23 04:07:31;;;;;;;15.20;14.60;;;10.90;99.90;;;;;;5026334;28;20501;-79
2022/12/23 04:10:00;;;;;;;14.67;14.37;;;10.90;99.90;;;;;;5022552;28;20582;-79
2022/12/23 04:12:29;;;;;;;14.63;14.33;;;10.90;99.90;;;;;;5024684;28;20445;-79
2022/12/23 04:14:58;;;;;;;14.40;14.10;;;10.90;99.90;;;;;;5020666;28;20441;-80
2022/12/23 04:17:26;;;;;;;15.00;14.60;;;10.90;99.90;;;;;;5022244;28;20448;-80
2022/12/23 04:19:56;;;;;;;14.77;14.47;;;10.90;99.90;;;;;;5026418;28;20875;-81
2022/12/23 04:22:25;;;;;;;14.80;14.50;;;11.00;99.90;;;;;;5021314;28;20543;-81
2022/12/23 04:24:53;;;;;;;14.60;14.30;;;10.90;99.90;;;;;;5020313;28;20458;-81
2022/12/23 04:27:21;;;;;;;14.60;14.30;;;10.90;99.90;;;;;;5017159;28;20503;-80
2022/12/23 04:29:49;;;;;;;14.80;14.50;;;10.90;99.90;;;;;;5020004;28;20461;-80
2022/12/23 04:32:18;;;;;;;14.70;14.40;;;11.00;99.90;;;;;;5019460;28;20463;-80
2022/12/23 04:34:46;;;;;;;14.47;14.17;;;11.00;99.90;;;;;;5020136;28;20455;-79
2022/12/23 04:37:15;;;;;;;17.13;16.63;;;10.90;99.90;;;;;;5020946;28;20552;-79
2022/12/23 04:39:44;;;;;;;14.20;13.90;;;10.90;99.90;;;;;;5017347;28;20498;-82
2022/12/23 04:42:12;;;;;;;14.70;14.40;;;10.90;99.90;;;;;;5016129;28;20440;-80
2022/12/23 04:44:40;;;;;;;14.80;14.40;;;11.00;99.90;;;;;;5019864;28;20484;-79
2022/12/23 04:47:08;;;;;;;15.00;14.70;;;10.90;99.90;;;;;;5021258;28;20459;-80
2022/12/23 04:49:37;;;;;;;15.00;14.70;;;10.90;99.90;;;;;;5020789;28;20481;-78
2022/12/23 04:52:05;;;;;;;15.00;14.70;;;10.90;99.90;;;;;;5020530;28;20452;-80
2022/12/23 04:54:35;;;;;;;14.73;14.43;;;10.90;99.90;;;;;;5020796;28;21072;-80
2022/12/23 04:57:11;;;;;;;14.93;14.57;;;11.00;99.90;;;;;;5019511;28;20546;-80
2022/12/23 04:59:39;;;;;;;15.80;15.40;;;11.00;99.90;;;;;;5021802;28;21029;-81
2022/12/23 05:02:08;;;;;;;17.93;17.27;;;10.90;99.90;;;;;;5017619;28;20487;-78
2022/12/23 05:04:37;;;;;;;15.60;15.20;;;10.90;99.90;;;;;;5021190;28;21202;-79
2022/12/23 05:07:05;;;;;;;15.40;15.10;;;10.90;99.90;;;;;;5021165;28;20949;-79
2022/12/23 05:09:35;;;;;;;14.70;14.40;;;10.90;99.90;;;;;;5019302;28;20473;-79
2022/12/23 05:12:03;;;;;;;15.10;14.80;;;10.90;99.90;;;;;;5026799;28;21010;-80
2022/12/23 05:14:31;;;;;;;15.33;14.63;;;10.90;99.90;;;;;;5018555;28;20902;-80
2022/12/23 05:16:59;;;;;;;14.60;14.30;;;10.90;99.90;;;;;;5019456;28;21019;-82
2022/12/23 05:19:34;;;;;;;14.37;14.07;;;10.80;99.90;;;;;;5018337;28;20497;-79
2022/12/23 05:22:02;;;;;;;14.50;14.20;;;10.90;99.90;;;;;;5020964;28;20493;-80
2022/12/23 05:24:31;;;;;;;14.83;14.43;;;10.80;99.90;;;;;;5018853;28;20453;-79
2022/12/23 05:27:00;;;;;;;14.30;14.00;;;10.80;99.90;;;;;;5017980;28;20451;-80
2022/12/23 05:29:29;;;;;;;14.60;14.30;;;10.80;99.90;;;;;;5018931;28;20489;-80
2022/12/23 05:31:57;;;;;;;15.13;14.83;;;10.80;99.90;;;;;;5013628;28;20452;-80
2022/12/23 05:34:26;;;;;;;14.70;14.40;;;10.80;99.90;;;;;;5017397;28;20481;-81
2022/12/23 05:36:54;;;;;;;15.30;14.80;;;10.90;99.90;;;;;;5016503;28;20459;-80
2022/12/23 05:39:22;;;;;;;14.43;14.13;;;10.80;99.90;;;;;;5023619;28;20476;-83
2022/12/23 05:41:50;;;;;;;14.70;14.33;;;10.90;99.90;;;;;;5018365;28;20465;-81
2022/12/23 05:44:20;;;;;;;14.20;13.90;;;10.90;99.90;;;;;;5019551;28;20453;-80
2022/12/23 05:46:48;;;;;;;14.20;13.90;;;10.90;99.90;;;;;;5019471;28;20457;-81
2022/12/23 05:49:16;;;;;;;14.10;13.60;;;10.90;99.90;;;;;;5014826;28;20480;-79
2022/12/23 05:51:45;;;;;;;14.70;14.40;;;10.90;99.90;;;;;;5020936;28;20888;-79
2022/12/23 05:54:13;;;;;;;14.80;14.33;;;10.90;99.90;;;;;;5022212;28;21044;-81
2022/12/23 05:56:41;;;;;;;14.50;14.20;;;10.90;99.90;;;;;;5020971;28;20458;-81
2022/12/23 05:59:09;;;;;;;14.60;14.20;;;10.90;99.90;;;;;;5017331;28;20528;-81
2022/12/23 06:01:39;;;;;;;14.57;14.27;;;10.90;99.90;;;;;;5021080;28;20455;-79
2022/12/23 06:04:09;;;;;;;15.17;14.77;;;10.90;99.90;;;;;;5016387;28;20895;-79
2022/12/23 06:06:38;;;;;;;14.83;14.53;;;10.90;99.90;;;;;;5012045;28;20493;-79
2022/12/23 06:09:06;;;;;;;14.87;14.57;;;10.90;99.90;;;;;;5019845;28;20558;-79
2022/12/23 06:11:34;;;;;;;14.80;14.00;;;11.00;99.90;;;;;;5018664;28;20818;-79
2022/12/23 06:14:02;;;;;;;14.20;13.90;;;10.90;99.90;;;;;;5019704;28;20517;-79
2022/12/23 06:16:31;;;;;;;14.67;14.37;;;11.00;99.90;;;;;;5019706;28;20453;-80
2022/12/23 06:19:00;;;;;;;14.40;14.10;;;11.00;99.90;;;;;;5020716;28;20491;-80
2022/12/23 06:21:28;;;;;;;14.43;14.13;;;11.10;99.90;;;;;;5017294;28;20543;-80
2022/12/23 06:23:57;;;;;;;15.13;14.73;;;11.00;99.90;;;;;;5018901;28;20441;-80
2022/12/23 06:26:25;;;;;;;14.47;14.17;;;11.00;99.90;;;;;;5012114;28;20460;-79
2022/12/23 06:28:53;;;;;;;14.40;14.00;;;11.00;99.90;;;;;;5018634;28;20990;-80
2022/12/23 06:31:21;;;;;;;14.17;13.77;;;11.00;99.90;;;;;;5019330;28;21011;-80
2022/12/23 06:33:49;;;;;;;14.00;13.70;;;11.00;99.90;;;;;;5016575;28;20478;-79
2022/12/23 06:36:19;;;;;;;14.33;14.03;;;11.00;99.90;;;;;;5019340;28;20459;-80
2022/12/23 06:38:48;;;;;;;14.50;14.20;;;11.00;99.90;;;;;;5011707;28;20473;-80
2022/12/23 06:41:16;;;;;;;14.70;14.40;;;11.10;99.90;;;;;;5015464;28;20450;-79
2022/12/23 06:43:44;;;;;;;15.30;15.00;;;11.00;99.90;;;;;;5014490;28;20464;-79
2022/12/23 06:46:19;;;;;;;14.30;14.00;;;11.10;99.90;;;;;;5017119;28;20469;-81
2022/12/23 06:48:47;;;;;;;14.97;14.57;;;11.10;99.90;;;;;;5021613;28;20484;-80
2022/12/23 06:51:16;;;;;;;14.17;13.87;;;11.10;99.90;;;;;;5018510;28;20840;-80
2022/12/23 06:53:45;;;;;;;14.00;13.70;;;11.10;99.90;;;;;;5013784;28;20501;-80
2022/12/23 06:56:13;;;;;;;14.00;13.70;;;11.20;99.90;;;;;;5014870;28;20476;-79
2022/12/23 06:58:42;;;;;;;14.20;13.90;;;11.20;99.90;;;;;;5014249;28;20560;-78
2022/12/23 07:01:10;;;;;;;14.30;13.90;;;11.20;99.90;;;;;;5015597;28;21033;-81
2022/12/23 07:03:38;;;;;;;14.33;13.97;;;11.20;99.90;;;;;;5018701;28;20467;-80
2022/12/23 07:06:07;;;;;;;14.10;13.80;;;11.20;99.90;;;;;;5020400;28;20453;-81
2022/12/23 07:08:35;;;;;;;14.27;13.97;;;11.20;99.90;;;;;;5016409;28;20517;-80
2022/12/23 07:11:05;;;;;;;14.37;13.97;;;11.30;99.90;;;;;;5019842;28;20460;-79
2022/12/23 07:13:34;;;;;;;14.00;13.70;;;11.20;99.90;;;;;;5016803;28;20472;-80
2022/12/23 07:16:06;;;;;;;14.73;14.23;;;11.20;99.90;;;;;;5013495;28;20456;-79
2022/12/23 07:18:34;;;;;;;14.27;13.93;;;11.20;99.90;;;;;;5019771;28;20477;-79
2022/12/23 07:21:03;;;;;;;14.40;14.10;;;11.30;99.90;;;;;;5018889;28;20469;-79
2022/12/23 07:23:32;;;;;;;13.87;13.57;;;11.20;99.90;;;;;;5017389;28;20981;-80
2022/12/23 07:26:00;;;;;;;14.20;13.90;;;11.20;99.90;;;;;;5019509;28;20458;-80
2022/12/23 07:28:29;;;;;;;13.77;13.47;;;11.20;99.90;;;;;;5017474;28;20485;-79
2022/12/23 07:30:58;;;;;;;13.77;13.47;;;11.30;99.90;;;;;;5017183;28;20550;-78
2022/12/23 07:33:26;;;;;;;13.80;13.50;;;11.20;99.90;;;;;;5017516;28;20448;-80
2022/12/23 07:35:58;;;;;;;14.20;13.90;;;11.20;99.90;;;;;;5017482;28;20459;-80
2022/12/23 07:38:26;;;;;;;14.43;14.13;;;11.20;99.90;;;;;;5012301;28;20595;-78
2022/12/23 07:40:55;;;;;;;14.70;14.40;;;11.20;99.90;;;;;;5018836;28;20455;-80
2022/12/23 07:43:23;;;;;;;14.83;14.53;;;11.20;99.90;;;;;;5018170;28;20469;-81
2022/12/23 07:45:53;;;;;;;14.90;14.50;;;11.20;99.90;;;;;;5015635;28;20441;-80
2022/12/23 07:48:28;;;;;;;14.73;14.33;;;11.20;99.90;;;;;;5016883;28;20565;-80
2022/12/23 07:51:00;;;;;;;14.20;13.90;;;11.20;99.90;;;;;;5022013;28;20531;-79
2022/12/23 07:53:29;;;;;;;14.40;14.10;;;11.20;99.90;;;;;;5016109;28;20804;-81
2022/12/23 07:55:57;;;;;;;14.40;14.10;;;11.20;99.90;;;;;;5018762;28;20462;-80
2022/12/23 07:58:26;;;;;;;14.30;14.00;;;11.20;99.90;;;;;;5020847;28;21035;-80
2022/12/23 08:01:01;;;;;;;14.50;14.20;;;11.30;99.90;;;;;;5018884;28;20425;-80
2022/12/23 08:03:30;;;;;;;13.87;13.57;;;11.20;99.90;;;;;;5015647;28;20480;-80
2022/12/23 08:06:03;;;;;;;14.30;14.00;;;11.30;99.90;;;;;;5021001;28;21243;-80
2022/12/23 08:08:31;;;;;;;14.70;14.20;;;11.30;99.90;;;;;;5014392;28;20980;-81
2022/12/23 08:11:02;;;;;;;14.53;14.17;;;11.20;99.90;;;;;;5022314;28;20476;-80
2022/12/23 08:13:31;;;;;;;14.90;14.60;;;11.20;99.90;;;;;;5019403;28;20532;-79
2022/12/23 08:16:02;;;;;;;15.53;15.13;;;11.20;99.90;;;;;;5019992;28;20487;-79
2022/12/23 08:18:32;;;;;;;14.10;13.80;;;11.30;99.90;;;;;;5022435;28;20473;-79
2022/12/23 08:21:02;;;;;;;14.80;14.50;;;11.30;99.90;;;;;;5018456;28;20445;-79
2022/12/23 08:23:31;;;;;;;14.90;14.50;;;11.20;99.90;;;;;;5022948;28;21038;-80
2022/12/23 08:26:01;;;;;;;14.83;14.43;;;11.20;99.90;;;;;;5022426;28;20469;-79
2022/12/23 08:28:30;;;;;;;15.23;14.83;;;11.20;99.90;;;;;;5019913;28;20484;-81
2022/12/23 08:31:06;;;;;;;15.17;14.83;;;11.20;99.90;;;;;;5019127;28;20531;-79
2022/12/23 08:33:37;;;;;;;14.97;14.57;;;11.30;99.90;;;;;;5019362;28;20962;-78
2022/12/23 08:36:07;;;;;;;15.93;15.50;;;11.30;99.90;;;;;;5016789;28;20953;-80
2022/12/23 08:38:36;;;;;;;15.57;15.10;;;11.30;99.90;;;;;;5019489;28;21019;-81
2022/12/23 08:41:09;;;;;;;15.60;15.20;;;11.30;99.90;;;;;;5014670;28;21048;-80
2022/12/23 08:43:38;;;;;;;15.60;15.20;;;11.30;99.90;;;;;;5026311;28;20453;-81
2022/12/23 08:46:08;;;;;;;15.43;14.90;;;11.40;99.90;;;;;;5018171;28;20963;-80
2022/12/23 08:48:37;;;;;;;15.47;15.00;;;11.40;99.90;;;;;;5025159;28;20486;-78
2022/12/23 08:51:12;;;;;;;15.63;15.00;;;11.40;99.90;;;;;;5018885;28;20482;-80
2022/12/23 08:53:41;;;;;;;15.33;14.93;;;11.40;99.90;;;;;;5018872;28;20555;-79
2022/12/23 08:56:11;;;;;;;16.33;15.60;;;11.40;99.90;;;;;;5015381;28;20453;-81
2022/12/23 08:58:40;;;;;;;15.50;15.10;;;11.40;99.90;;;;;;5021698;28;20496;-80
2022/12/23 09:01:12;;;;;;;14.97;14.67;;;11.40;99.90;;;;;;5026377;28;20463;-81
2022/12/23 09:03:41;;;;;;;15.40;14.90;;;11.40;99.90;;;;;;5020413;28;20493;-80
2022/12/23 09:06:12;;;;;;;15.50;15.20;;;11.40;99.90;;;;;;5015743;28;20485;-81
2022/12/23 09:08:41;;;;;;;15.93;15.53;;;11.40;99.90;;;;;;5019032;28;20482;-80
2022/12/23 09:11:10;;;;;;;16.00;15.60;;;11.40;99.90;;;;;;5018421;28;20473;-79
2022/12/23 09:13:39;;;;;;;15.90;15.43;;;11.40;99.90;;;;;;5017787;28;20453;-80
2022/12/23 09:16:08;;;;;;;15.87;15.40;;;11.40;99.90;;;;;;5018260;28;20456;-81
2022/12/23 09:18:38;;;;;;;15.83;15.30;;;11.40;99.90;;;;;;5021250;28;20477;-81
2022/12/23 09:21:08;;;;;;;15.63;15.23;;;11.40;99.90;;;;;;5015460;28;20463;-79
2022/12/23 09:23:36;;;;;;;15.83;15.43;;;11.40;99.90;;;;;;5016290;28;20455;-79
2022/12/23 09:26:05;;;;;;;15.63;15.23;;;11.40;99.90;;;;;;5021708;28;20461;-81
2022/12/23 09:28:34;;;;;;;18.23;17.53;;;11.40;99.90;;;;;;5014321;28;20472;-80
2022/12/23 09:31:07;;;;;;;16.53;16.03;;;11.40;99.90;;;;;;5015090;28;20579;-80
2022/12/23 09:33:36;;;;;;;17.17;16.47;;;11.40;99.90;;;;;;5019728;28;20457;-81
2022/12/23 09:36:06;;;;;;;16.37;15.97;;;11.30;99.90;;;;;;5018634;28;20469;-80
2022/12/23 09:38:35;;;;;;;15.80;15.43;;;11.40;99.90;;;;;;5015384;28;20480;-79
2022/12/23 09:41:09;;;;;;;16.50;15.90;;;11.40;99.90;;;;;;5019271;28;20462;-80
2022/12/23 09:43:44;;;;;;;16.30;15.90;;;11.40;99.90;;;;;;5016543;28;20462;-80
2022/12/23 09:46:17;;;;;;;17.17;16.67;;;11.40;99.90;;;;;;5019092;28;20492;-80
2022/12/23 09:48:54;;;;;;;17.10;16.60;;;11.40;99.90;;;;;;5014763;28;20495;-81
2022/12/23 09:51:24;;;;;;;16.27;15.87;;;11.40;99.90;;;;;;5016980;28;20469;-80
2022/12/23 09:53:59;;;;;;;16.47;16.07;;;11.40;99.90;;;;;;5015000;28;20485;-81
2022/12/23 09:56:36;;;;;;;16.40;16.00;;;11.40;99.90;;;;;;5017501;28;20440;-79
2022/12/23 09:59:16;;;;;;;16.47;16.07;;;11.30;99.90;;;;;;5019560;28;20488;-80
2022/12/23 10:01:50;;;;;;;16.77;16.20;;;11.30;99.90;;;;;;5022751;28;20458;-80
2022/12/23 10:04:45;;;;;;;16.30;15.90;;;11.30;99.90;;;;;;5014972;28;20548;-82
2022/12/23 10:07:24;;;;;;;16.20;15.70;;;11.40;99.90;;;;;;5031646;28;20464;-80
2022/12/23 10:09:57;;;;;;;16.60;16.10;;;11.40;99.90;;;;;;5019763;28;20786;-80
2022/12/23 10:12:37;;;;;;;16.20;15.80;;;11.50;99.90;;;;;;5024347;28;20555;-79
2022/12/23 10:15:20;;;;;;;16.63;16.00;;;11.50;99.90;;;;;;5015544;28;20478;-80
2022/12/23 10:17:51;;;;;;;16.40;16.00;;;11.50;99.90;;;;;;5014054;28;20512;-79
2022/12/23 10:20:28;;;;;;;16.40;15.90;;;11.50;99.90;;;;;;5016972;28;20441;-80
2022/12/23 10:22:59;;;;;;;16.50;16.10;;;11.50;99.90;;;;;;5019708;28;20974;-78
2022/12/23 10:25:37;;;;;;;15.73;15.33;;;11.50;99.90;;;;;;5018851;28;20804;-80
2022/12/23 10:28:10;;;;;;;16.80;16.27;;;11.50;99.90;;;;;;5020814;28;20565;-80
2022/12/23 10:30:42;;;;;;;16.63;16.23;;;11.50;99.90;;;;;;5015128;28;20534;-79
2022/12/23 10:33:42;;;;;;;16.60;16.20;;;11.50;99.90;;;;;;5017652;28;20449;-80
2022/12/23 10:36:17;;;;;;;16.90;16.43;;;11.60;99.90;;;;;;5016171;28;20452;-81
2022/12/23 10:38:59;;;;;;;17.83;17.10;;;11.60;99.90;;;;;;5017131;28;20477;-79
2022/12/23 10:41:36;;;;;;;17.37;16.97;;;11.60;99.90;;;;;;5019814;28;20509;-79
2022/12/23 10:44:42;;;;;;;17.20;16.70;;;11.60;99.90;;;;;;5017234;28;20531;-80
2022/12/23 10:47:20;;;;;;;17.77;17.10;;;11.60;99.90;;;;;;5012196;28;20469;-80
2022/12/23 10:50:00;;;;;;;17.27;16.70;;;11.60;99.90;;;;;;5017058;28;20464;-80
2022/12/23 10:52:32;;;;;;;17.00;16.60;;;11.60;99.90;;;;;;5015153;28;20887;-81
2022/12/23 10:55:03;;;;;;;17.37;16.87;;;11.60;99.90;;;;;;5013520;28;20465;-80
2022/12/23 10:57:32;;;;;;;17.60;17.10;;;11.60;99.90;;;;;;5017751;28;20457;-80
2022/12/23 11:00:00;;;;;;;17.43;16.93;;;11.60;99.90;;;;;;5013452;28;20467;-79
2022/12/23 11:02:44;;;;;;;17.40;16.70;;;11.70;99.90;;;;;;5023972;28;20944;-80
2022/12/23 11:05:15;;;;;;;17.60;17.00;;;11.70;99.90;;;;;;5015742;28;20448;-79
2022/12/23 11:07:45;;;;;;;17.10;16.70;;;11.60;99.90;;;;;;5014049;28;20654;-80
2022/12/23 11:10:19;;;;;;;17.40;16.80;;;11.60;99.90;;;;;;5009348;28;20557;-81
2022/12/23 11:12:49;;;;;;;17.20;16.70;;;11.70;99.90;;;;;;5016735;28;20456;-80
2022/12/23 11:15:27;;;;;;;17.60;17.10;;;11.70;99.90;;;;;;5022304;28;20511;-79
2022/12/23 11:18:05;;;;;;;17.13;16.73;;;11.60;99.90;;;;;;5018856;28;20485;-79
2022/12/23 11:20:34;;;;;;;17.53;17.13;;;11.70;99.90;;;;;;5020532;28;20939;-80
2022/12/23 11:23:05;;;;;;;17.50;17.00;;;11.70;99.90;;;;;;5017063;28;20701;-78
2022/12/23 11:25:37;;;;;;;17.93;17.40;;;11.70;99.90;;;;;;5020555;28;20452;-79
2022/12/23 11:28:12;;;;;;;17.40;16.90;;;11.80;99.90;;;;;;5017002;28;20500;-79
2022/12/23 11:30:52;;;;;;;16.80;16.40;;;11.90;99.90;;;;;;5020402;28;20467;-79
2022/12/23 11:33:26;;;;;;;16.80;16.40;;;11.90;99.90;;;;;;5020594;28;20510;-79
2022/12/23 11:36:04;;;;;;;16.90;16.50;;;11.80;99.90;;;;;;5019364;28;20531;-80
2022/12/23 11:38:33;;;;;;;17.20;16.70;;;11.90;99.90;;;;;;5021066;28;20482;-81
2022/12/23 11:41:04;;;;;;;17.70;17.30;;;11.90;99.90;;;;;;5018605;28;20466;-79
2022/12/23 11:43:34;;;;;;;17.60;16.90;;;11.90;99.90;;;;;;5019860;28;20540;-79
2022/12/23 11:46:17;;;;;;;17.70;17.20;;;11.90;99.90;;;;;;5019558;28;20458;-80
2022/12/23 11:48:46;;;;;;;17.50;17.10;;;11.90;99.90;;;;;;5021151;28;20484;-80
2022/12/23 11:51:26;;;;;;;18.00;17.50;;;11.90;99.90;;;;;;5020614;28;20477;-80
2022/12/23 11:54:00;;;;;;;18.40;17.67;;;11.80;99.90;;;;;;5020809;28;20778;-80
2022/12/23 11:56:36;;;;;;;19.00;18.30;;;11.80;99.90;;;;;;5017627;28;20457;-78
2022/12/23 11:59:07;;;;;;;18.33;17.80;;;11.80;99.90;;;;;;5016302;28;21018;-80
2022/12/23 12:01:38;;;;;;;18.07;17.57;;;11.80;99.90;;;;;;5015356;28;20453;-79
2022/12/23 12:04:09;;;;;;;18.60;18.10;;;11.90;99.90;;;;;;5015722;28;20458;-80
2022/12/23 12:06:44;;;;;;;18.10;17.60;;;11.90;99.90;;;;;;5019338;28;20466;-80
2022/12/23 12:09:20;;;;;;;18.30;17.80;;;11.80;99.90;;;;;;5018615;28;20555;-79
2022/12/23 12:11:53;;;;;;;18.67;18.07;;;11.80;99.90;;;;;;5021590;28;20468;-79
2022/12/23 12:14:31;;;;;;;17.80;17.30;;;11.80;99.90;;;;;;5020953;28;20472;-79
2022/12/23 12:17:07;;;;;;;18.00;17.60;;;11.80;99.90;;;;;;5017111;28;20457;-79
2022/12/23 12:19:40;;;;;;;18.00;17.50;;;11.80;99.90;;;;;;5020064;28;20533;-80
2022/12/23 12:22:15;;;;;;;19.30;18.70;;;11.80;99.90;;;;;;5019581;28;20452;-79
2022/12/23 12:24:48;;;;;;;18.30;17.60;;;11.90;99.90;;;;;;5020676;28;20456;-79
2022/12/23 12:27:19;;;;;;;18.10;17.60;;;11.90;99.90;;;;;;5019778;28;20452;-79
2022/12/23 12:29:53;;;;;;;18.40;17.80;;;11.90;99.90;;;;;;5021107;28;20461;-80
2022/12/23 12:32:28;;;;;;;17.80;17.30;;;11.90;99.90;;;;;;5021540;28;20480;-81
2022/12/23 12:35:00;;;;;;;17.80;17.20;;;11.90;99.90;;;;;;5019036;28;20551;-80
2022/12/23 12:37:35;;;;;;;18.20;17.63;;;11.90;99.90;;;;;;5020235;28;20519;-80
2022/12/23 12:40:15;;;;;;;18.50;17.80;;;11.90;99.90;;;;;;5021351;28;20482;-80
2022/12/23 12:42:48;;;;;;;18.27;17.67;;;11.90;99.90;;;;;;5035605;28;20445;-79
2022/12/23 12:45:20;;;;;;;17.87;17.40;;;12.00;99.90;;;;;;5020784;28;20979;-80
2022/12/23 12:48:03;;;;;;;18.00;17.50;;;12.00;99.90;;;;;;5018620;28;20487;-80
2022/12/23 12:50:54;;;;;;;18.50;17.97;;;11.90;99.90;;;;;;5019135;28;20758;-80
2022/12/23 12:53:23;;;;;;;17.90;17.50;;;11.90;99.90;;;;;;5020596;28;21019;-82
2022/12/23 12:55:57;;;;;;;18.07;17.57;;;12.00;99.90;;;;;;5019717;28;20532;-80
2022/12/23 12:58:27;;;;;;;19.50;18.90;;;11.90;99.90;;;;;;5021826;28;20835;-80
2022/12/23 13:01:07;;;;;;;18.73;18.13;;;11.90;99.90;;;;;;5015887;28;20801;-81
2022/12/23 13:03:57;;;;;;;18.90;18.30;;;11.90;99.90;;;;;;5024079;28;20458;-81
2022/12/23 13:06:30;;;;;;;18.73;18.23;;;12.00;99.90;;;;;;5021035;28;20456;-80
2022/12/23 13:09:08;;;;;;;19.40;18.50;;;12.00;99.90;;;;;;5016108;28;20476;-79
2022/12/23 13:11:43;;;;;;;19.00;18.40;;;12.00;99.90;;;;;;5020481;28;20460;-79
2022/12/23 13:14:25;;;;;;;19.27;18.47;;;12.00;99.90;;;;;;5019162;28;20471;-79
2022/12/23 13:17:02;;;;;;;19.00;18.40;;;11.90;99.90;;;;;;5018619;28;20460;-81
2022/12/23 13:19:38;;;;;;;22.07;21.07;;;12.10;99.90;;;;;;5013504;28;20480;-80